sensor_id;sensor_type;location;lat;lon;timestamp;P1;durP1;ratioP1;P2;durP2;ratioP2
13419;SDS011;6781;58.440;15.470;2023-09-18T00:00:09;1.17;;;0.90;;
13419;SDS011;6781;58.440;15.470;2023-09-18T00:02:38;1.45;;;1.00;;
13419;SDS011;6781;58.440;15.470;2023-09-18T00:05:05;1.90;;;1.00;;
13419;SDS011;6781;58.440;15.470;2023-09-18T00:07:34;0.85;;;0.70;;
13419;SDS011;6781;58.440;15.470;2023-09-18T00:10:02;1.20;;;1.10;;
13419;SDS011;6781;58.440;15.470;2023-09-18T00:12:29;1.25;;;0.90;;
13419;SDS011;6781;58.440;15.470;2023-09-18T00:14:56;2.47;;;0.77;;
13419;SDS011;6781;58.440;15.470;2023-09-18T00:17:23;1.90;;;1.10;;
13419;SDS011;6781;58.440;15.470;2023-09-18T00:19:50;1.23;;;0.90;;
13419;SDS011;6781;58.440;15.470;2023-09-18T00:22:18;1.00;;;0.90;;
13419;SDS011;6781;58.440;15.470;2023-09-18T00:24:47;0.77;;;0.77;;
13419;SDS011;6781;58.440;15.470;2023-09-18T00:27:14;1.55;;;1.10;;
13419;SDS011;6781;58.440;15.470;2023-09-18T00:29:41;1.00;;;0.90;;
13419;SDS011;6781;58.440;15.470;2023-09-18T00:32:08;0.70;;;0.70;;
13419;SDS011;6781;58.440;15.470;2023-09-18T00:34:35;1.23;;;0.90;;
13419;SDS011;6781;58.440;15.470;2023-09-18T00:37:03;1.05;;;1.00;;
13419;SDS011;6781;58.440;15.470;2023-09-18T00:39:30;0.75;;;0.68;;
13419;SDS011;6781;58.440;15.470;2023-09-18T00:41:58;2.00;;;1.00;;
13419;SDS011;6781;58.440;15.470;2023-09-18T00:44:25;0.93;;;0.88;;
13419;SDS011;6781;58.440;15.470;2023-09-18T00:46:52;2.65;;;1.00;;
13419;SDS011;6781;58.440;15.470;2023-09-18T00:49:21;4.03;;;1.05;;
13419;SDS011;6781;58.440;15.470;2023-09-18T00:51:50;3.38;;;1.00;;
13419;SDS011;6781;58.440;15.470;2023-09-18T00:54:18;1.00;;;0.80;;
13419;SDS011;6781;58.440;15.470;2023-09-18T00:56:46;0.75;;;0.75;;
13419;SDS011;6781;58.440;15.470;2023-09-18T00:59:20;1.05;;;0.82;;
13419;SDS011;6781;58.440;15.470;2023-09-18T01:01:47;2.60;;;0.73;;
13419;SDS011;6781;58.440;15.470;2023-09-18T01:04:16;1.58;;;0.80;;
13419;SDS011;6781;58.440;15.470;2023-09-18T01:06:42;1.42;;;1.00;;
13419;SDS011;6781;58.440;15.470;2023-09-18T01:09:09;2.50;;;0.52;;
13419;SDS011;6781;58.440;15.470;2023-09-18T01:11:45;0.90;;;0.90;;
13419;SDS011;6781;58.440;15.470;2023-09-18T01:14:23;2.88;;;0.88;;
13419;SDS011;6781;58.440;15.470;2023-09-18T01:17:00;0.85;;;0.82;;
13419;SDS011;6781;58.440;15.470;2023-09-18T01:19:40;2.03;;;1.00;;
13419;SDS011;6781;58.440;15.470;2023-09-18T01:22:10;0.90;;;0.80;;
13419;SDS011;6781;58.440;15.470;2023-09-18T01:24:39;0.70;;;0.70;;
13419;SDS011;6781;58.440;15.470;2023-09-18T01:27:08;0.80;;;0.80;;
13419;SDS011;6781;58.440;15.470;2023-09-18T01:29:38;2.25;;;0.88;;
13419;SDS011;6781;58.440;15.470;2023-09-18T01:32:05;1.55;;;0.90;;
13419;SDS011;6781;58.440;15.470;2023-09-18T01:34:33;0.80;;;0.80;;
13419;SDS011;6781;58.440;15.470;2023-09-18T01:37:02;4.65;;;1.10;;
13419;SDS011;6781;58.440;15.470;2023-09-18T01:39:32;1.17;;;0.60;;
13419;SDS011;6781;58.440;15.470;2023-09-18T01:42:03;0.75;;;0.75;;
13419;SDS011;6781;58.440;15.470;2023-09-18T01:44:31;1.35;;;0.80;;
13419;SDS011;6781;58.440;15.470;2023-09-18T01:46:59;1.35;;;1.05;;
13419;SDS011;6781;58.440;15.470;2023-09-18T01:49:29;0.75;;;0.60;;
13419;SDS011;6781;58.440;15.470;2023-09-18T01:51:57;2.15;;;0.85;;
13419;SDS011;6781;58.440;15.470;2023-09-18T01:54:24;0.73;;;0.73;;
13419;SDS011;6781;58.440;15.470;2023-09-18T01:56:51;0.90;;;0.90;;
13419;SDS011;6781;58.440;15.470;2023-09-18T01:59:20;1.95;;;0.70;;
13419;SDS011;6781;58.440;15.470;2023-09-18T02:04:23;1.13;;;0.90;;
13419;SDS011;6781;58.440;15.470;2023-09-18T02:06:51;1.08;;;1.00;;
13419;SDS011;6781;58.440;15.470;2023-09-18T02:09:18;0.85;;;0.85;;
13419;SDS011;6781;58.440;15.470;2023-09-18T02:11:45;2.17;;;0.80;;
13419;SDS011;6781;58.440;15.470;2023-09-18T02:14:13;1.52;;;0.80;;
13419;SDS011;6781;58.440;15.470;2023-09-18T02:16:42;1.67;;;0.77;;
13419;SDS011;6781;58.440;15.470;2023-09-18T02:19:10;0.63;;;0.60;;
13419;SDS011;6781;58.440;15.470;2023-09-18T02:21:38;3.00;;;1.00;;
13419;SDS011;6781;58.440;15.470;2023-09-18T02:24:05;1.05;;;0.77;;
13419;SDS011;6781;58.440;15.470;2023-09-18T02:26:34;2.72;;;0.82;;
13419;SDS011;6781;58.440;15.470;2023-09-18T02:29:02;1.55;;;0.82;;
13419;SDS011;6781;58.440;15.470;2023-09-18T02:31:31;0.95;;;0.80;;
13419;SDS011;6781;58.440;15.470;2023-09-18T02:34:00;2.50;;;0.77;;
13419;SDS011;6781;58.440;15.470;2023-09-18T02:36:27;1.23;;;1.02;;
13419;SDS011;6781;58.440;15.470;2023-09-18T02:38:54;0.70;;;0.70;;
13419;SDS011;6781;58.440;15.470;2023-09-18T02:41:21;1.05;;;0.60;;
13419;SDS011;6781;58.440;15.470;2023-09-18T02:43:48;1.25;;;0.73;;
13419;SDS011;6781;58.440;15.470;2023-09-18T02:46:15;1.50;;;0.93;;
13419;SDS011;6781;58.440;15.470;2023-09-18T02:48:42;1.52;;;0.88;;
13419;SDS011;6781;58.440;15.470;2023-09-18T02:51:11;2.47;;;0.80;;
13419;SDS011;6781;58.440;15.470;2023-09-18T02:53:37;1.42;;;1.00;;
13419;SDS011;6781;58.440;15.470;2023-09-18T02:56:04;0.80;;;0.80;;
13419;SDS011;6781;58.440;15.470;2023-09-18T02:58:31;2.17;;;1.00;;
13419;SDS011;6781;58.440;15.470;2023-09-18T03:00:58;0.73;;;0.73;;
13419;SDS011;6781;58.440;15.470;2023-09-18T03:03:27;1.70;;;1.00;;
13419;SDS011;6781;58.440;15.470;2023-09-18T03:05:59;2.55;;;0.90;;
13419;SDS011;6781;58.440;15.470;2023-09-18T03:08:29;2.92;;;0.75;;
13419;SDS011;6781;58.440;15.470;2023-09-18T03:10:57;2.08;;;0.88;;
13419;SDS011;6781;58.440;15.470;2023-09-18T03:13:25;1.80;;;0.80;;
13419;SDS011;6781;58.440;15.470;2023-09-18T03:15:53;1.55;;;0.80;;
13419;SDS011;6781;58.440;15.470;2023-09-18T03:18:20;3.55;;;0.82;;
13419;SDS011;6781;58.440;15.470;2023-09-18T03:20:47;2.15;;;0.90;;
13419;SDS011;6781;58.440;15.470;2023-09-18T03:23:14;1.17;;;1.00;;
13419;SDS011;6781;58.440;15.470;2023-09-18T03:25:43;2.45;;;0.80;;
13419;SDS011;6781;58.440;15.470;2023-09-18T03:28:10;1.20;;;1.10;;
13419;SDS011;6781;58.440;15.470;2023-09-18T03:30:36;2.58;;;0.80;;
13419;SDS011;6781;58.440;15.470;2023-09-18T03:33:04;1.60;;;1.00;;
13419;SDS011;6781;58.440;15.470;2023-09-18T03:35:31;2.30;;;0.93;;
13419;SDS011;6781;58.440;15.470;2023-09-18T03:37:58;2.27;;;0.90;;
13419;SDS011;6781;58.440;15.470;2023-09-18T03:40:26;1.30;;;1.00;;
13419;SDS011;6781;58.440;15.470;2023-09-18T03:42:54;1.15;;;1.15;;
13419;SDS011;6781;58.440;15.470;2023-09-18T03:45:21;1.65;;;1.08;;
13419;SDS011;6781;58.440;15.470;2023-09-18T03:47:48;1.27;;;0.98;;
13419;SDS011;6781;58.440;15.470;2023-09-18T03:50:16;2.38;;;0.82;;
13419;SDS011;6781;58.440;15.470;2023-09-18T03:52:43;3.03;;;1.00;;
13419;SDS011;6781;58.440;15.470;2023-09-18T03:55:10;1.15;;;1.00;;
13419;SDS011;6781;58.440;15.470;2023-09-18T03:57:38;2.25;;;0.95;;
13419;SDS011;6781;58.440;15.470;2023-09-18T04:00:07;3.33;;;1.02;;
13419;SDS011;6781;58.440;15.470;2023-09-18T04:02:38;2.15;;;1.00;;
13419;SDS011;6781;58.440;15.470;2023-09-18T04:05:05;1.88;;;1.10;;
13419;SDS011;6781;58.440;15.470;2023-09-18T04:07:32;3.20;;;1.27;;
13419;SDS011;6781;58.440;15.470;2023-09-18T04:10:00;3.33;;;1.23;;
13419;SDS011;6781;58.440;15.470;2023-09-18T04:12:27;1.95;;;1.02;;
13419;SDS011;6781;58.440;15.470;2023-09-18T04:14:55;2.45;;;1.27;;
13419;SDS011;6781;58.440;15.470;2023-09-18T04:17:23;1.77;;;1.30;;
13419;SDS011;6781;58.440;15.470;2023-09-18T04:19:50;0.95;;;0.90;;
13419;SDS011;6781;58.440;15.470;2023-09-18T04:22:17;1.90;;;0.95;;
13419;SDS011;6781;58.440;15.470;2023-09-18T04:24:44;1.45;;;1.20;;
13419;SDS011;6781;58.440;15.470;2023-09-18T04:27:11;7.15;;;1.42;;
13419;SDS011;6781;58.440;15.470;2023-09-18T04:29:38;1.70;;;1.23;;
13419;SDS011;6781;58.440;15.470;2023-09-18T04:32:05;3.47;;;1.05;;
13419;SDS011;6781;58.440;15.470;2023-09-18T04:34:34;3.08;;;1.67;;
13419;SDS011;6781;58.440;15.470;2023-09-18T04:37:01;2.78;;;1.10;;
13419;SDS011;6781;58.440;15.470;2023-09-18T04:39:29;2.83;;;1.40;;
13419;SDS011;6781;58.440;15.470;2023-09-18T04:42:00;2.65;;;1.25;;
13419;SDS011;6781;58.440;15.470;2023-09-18T04:44:30;3.80;;;1.50;;
13419;SDS011;6781;58.440;15.470;2023-09-18T04:46:57;4.78;;;1.45;;
13419;SDS011;6781;58.440;15.470;2023-09-18T04:49:24;1.70;;;1.13;;
13419;SDS011;6781;58.440;15.470;2023-09-18T04:51:54;5.85;;;1.40;;
13419;SDS011;6781;58.440;15.470;2023-09-18T04:54:21;5.05;;;1.52;;
13419;SDS011;6781;58.440;15.470;2023-09-18T04:56:49;5.05;;;1.70;;
13419;SDS011;6781;58.440;15.470;2023-09-18T04:59:16;1.40;;;1.30;;
13419;SDS011;6781;58.440;15.470;2023-09-18T05:01:43;2.28;;;1.20;;
13419;SDS011;6781;58.440;15.470;2023-09-18T05:04:12;4.95;;;1.75;;
13419;SDS011;6781;58.440;15.470;2023-09-18T05:06:39;4.35;;;1.38;;
13419;SDS011;6781;58.440;15.470;2023-09-18T05:09:09;2.97;;;1.58;;
13419;SDS011;6781;58.440;15.470;2023-09-18T05:11:38;4.55;;;2.53;;
13419;SDS011;6781;58.440;15.470;2023-09-18T05:14:07;7.18;;;1.83;;
13419;SDS011;6781;58.440;15.470;2023-09-18T05:16:34;4.30;;;1.90;;
13419;SDS011;6781;58.440;15.470;2023-09-18T05:19:00;5.13;;;1.80;;
13419;SDS011;6781;58.440;15.470;2023-09-18T05:21:28;8.23;;;1.60;;
13419;SDS011;6781;58.440;15.470;2023-09-18T05:23:55;4.13;;;1.67;;
13419;SDS011;6781;58.440;15.470;2023-09-18T05:26:25;4.50;;;1.70;;
13419;SDS011;6781;58.440;15.470;2023-09-18T05:28:54;5.90;;;1.60;;
13419;SDS011;6781;58.440;15.470;2023-09-18T05:31:21;5.38;;;1.73;;
13419;SDS011;6781;58.440;15.470;2023-09-18T05:33:49;7.82;;;1.67;;
13419;SDS011;6781;58.440;15.470;2023-09-18T05:36:16;2.85;;;1.83;;
13419;SDS011;6781;58.440;15.470;2023-09-18T05:38:43;4.03;;;1.80;;
13419;SDS011;6781;58.440;15.470;2023-09-18T05:41:11;5.05;;;1.95;;
13419;SDS011;6781;58.440;15.470;2023-09-18T05:43:39;4.07;;;1.85;;
13419;SDS011;6781;58.440;15.470;2023-09-18T05:46:06;4.35;;;2.13;;
13419;SDS011;6781;58.440;15.470;2023-09-18T05:48:33;3.75;;;2.10;;
13419;SDS011;6781;58.440;15.470;2023-09-18T05:51:02;5.20;;;2.05;;
13419;SDS011;6781;58.440;15.470;2023-09-18T05:53:29;3.22;;;2.35;;
13419;SDS011;6781;58.440;15.470;2023-09-18T05:55:56;5.85;;;2.10;;
13419;SDS011;6781;58.440;15.470;2023-09-18T05:58:29;5.55;;;2.13;;
13419;SDS011;6781;58.440;15.470;2023-09-18T06:00:58;4.93;;;1.83;;
13419;SDS011;6781;58.440;15.470;2023-09-18T06:03:26;8.07;;;2.20;;
13419;SDS011;6781;58.440;15.470;2023-09-18T06:05:55;4.68;;;2.00;;
13419;SDS011;6781;58.440;15.470;2023-09-18T06:08:22;2.42;;;1.92;;
13419;SDS011;6781;58.440;15.470;2023-09-18T06:10:51;9.70;;;1.98;;
13419;SDS011;6781;58.440;15.470;2023-09-18T06:13:19;3.17;;;2.33;;
13419;SDS011;6781;58.440;15.470;2023-09-18T06:15:46;5.38;;;2.00;;
13419;SDS011;6781;58.440;15.470;2023-09-18T06:18:14;7.40;;;2.20;;
13419;SDS011;6781;58.440;15.470;2023-09-18T06:20:41;5.25;;;2.08;;
13419;SDS011;6781;58.440;15.470;2023-09-18T06:23:10;3.78;;;1.88;;
13419;SDS011;6781;58.440;15.470;2023-09-18T06:25:37;5.75;;;2.00;;
13419;SDS011;6781;58.440;15.470;2023-09-18T06:28:04;5.13;;;2.40;;
13419;SDS011;6781;58.440;15.470;2023-09-18T06:30:31;4.13;;;2.05;;
13419;SDS011;6781;58.440;15.470;2023-09-18T06:32:59;2.95;;;1.75;;
13419;SDS011;6781;58.440;15.470;2023-09-18T06:35:29;4.57;;;1.90;;
13419;SDS011;6781;58.440;15.470;2023-09-18T06:37:56;3.95;;;2.15;;
13419;SDS011;6781;58.440;15.470;2023-09-18T06:40:23;3.17;;;2.00;;
13419;SDS011;6781;58.440;15.470;2023-09-18T06:42:51;3.50;;;2.00;;
13419;SDS011;6781;58.440;15.470;2023-09-18T06:45:24;2.83;;;1.58;;
13419;SDS011;6781;58.440;15.470;2023-09-18T06:47:51;8.20;;;2.25;;
13419;SDS011;6781;58.440;15.470;2023-09-18T06:50:18;3.60;;;1.80;;
13419;SDS011;6781;58.440;15.470;2023-09-18T06:52:47;3.22;;;1.90;;
13419;SDS011;6781;58.440;15.470;2023-09-18T06:55:14;1.98;;;1.67;;
13419;SDS011;6781;58.440;15.470;2023-09-18T06:57:42;4.85;;;2.22;;
13419;SDS011;6781;58.440;15.470;2023-09-18T07:00:10;3.65;;;1.40;;
13419;SDS011;6781;58.440;15.470;2023-09-18T07:02:39;3.85;;;1.50;;
13419;SDS011;6781;58.440;15.470;2023-09-18T07:05:06;2.90;;;1.45;;
13419;SDS011;6781;58.440;15.470;2023-09-18T07:07:33;2.60;;;1.10;;
13419;SDS011;6781;58.440;15.470;2023-09-18T07:10:02;7.57;;;1.50;;
13419;SDS011;6781;58.440;15.470;2023-09-18T07:12:33;8.48;;;1.65;;
13419;SDS011;6781;58.440;15.470;2023-09-18T07:15:00;2.92;;;1.40;;
13419;SDS011;6781;58.440;15.470;2023-09-18T07:17:29;5.35;;;1.23;;
13419;SDS011;6781;58.440;15.470;2023-09-18T07:19:56;3.25;;;1.30;;
13419;SDS011;6781;58.440;15.470;2023-09-18T07:22:23;1.45;;;1.00;;
13419;SDS011;6781;58.440;15.470;2023-09-18T07:24:50;2.00;;;0.85;;
13419;SDS011;6781;58.440;15.470;2023-09-18T07:27:18;5.00;;;1.70;;
13419;SDS011;6781;58.440;15.470;2023-09-18T07:29:45;3.05;;;1.25;;
13419;SDS011;6781;58.440;15.470;2023-09-18T07:32:12;2.80;;;1.13;;
13419;SDS011;6781;58.440;15.470;2023-09-18T07:34:40;2.60;;;1.23;;
13419;SDS011;6781;58.440;15.470;2023-09-18T07:37:06;3.17;;;1.02;;
13419;SDS011;6781;58.440;15.470;2023-09-18T07:39:34;2.38;;;1.00;;
13419;SDS011;6781;58.440;15.470;2023-09-18T07:42:01;2.28;;;1.33;;
13419;SDS011;6781;58.440;15.470;2023-09-18T07:44:30;5.35;;;1.30;;
13419;SDS011;6781;58.440;15.470;2023-09-18T07:46:57;2.20;;;0.80;;
13419;SDS011;6781;58.440;15.470;2023-09-18T07:49:26;2.65;;;1.25;;
13419;SDS011;6781;58.440;15.470;2023-09-18T07:51:53;2.60;;;0.70;;
13419;SDS011;6781;58.440;15.470;2023-09-18T07:54:20;2.85;;;0.90;;
13419;SDS011;6781;58.440;15.470;2023-09-18T07:56:50;2.42;;;0.80;;
13419;SDS011;6781;58.440;15.470;2023-09-18T07:59:17;1.20;;;1.05;;
13419;SDS011;6781;58.440;15.470;2023-09-18T08:01:45;1.35;;;0.90;;
13419;SDS011;6781;58.440;15.470;2023-09-18T08:04:13;1.02;;;0.68;;
13419;SDS011;6781;58.440;15.470;2023-09-18T08:06:39;3.35;;;0.80;;
13419;SDS011;6781;58.440;15.470;2023-09-18T08:09:06;1.73;;;0.80;;
13419;SDS011;6781;58.440;15.470;2023-09-18T08:11:40;2.47;;;0.60;;
13419;SDS011;6781;58.440;15.470;2023-09-18T08:14:08;1.88;;;0.85;;
13419;SDS011;6781;58.440;15.470;2023-09-18T08:16:35;2.80;;;1.20;;
13419;SDS011;6781;58.440;15.470;2023-09-18T08:19:03;2.25;;;0.82;;
13419;SDS011;6781;58.440;15.470;2023-09-18T08:21:31;0.98;;;0.68;;
13419;SDS011;6781;58.440;15.470;2023-09-18T08:23:59;1.02;;;0.70;;
13419;SDS011;6781;58.440;15.470;2023-09-18T08:26:26;4.47;;;0.80;;
13419;SDS011;6781;58.440;15.470;2023-09-18T08:28:53;3.05;;;1.00;;
13419;SDS011;6781;58.440;15.470;2023-09-18T08:31:20;2.67;;;0.90;;
13419;SDS011;6781;58.440;15.470;2023-09-18T08:33:49;1.98;;;0.90;;
13419;SDS011;6781;58.440;15.470;2023-09-18T08:36:17;2.13;;;0.70;;
13419;SDS011;6781;58.440;15.470;2023-09-18T08:38:44;2.42;;;0.70;;
13419;SDS011;6781;58.440;15.470;2023-09-18T08:41:14;1.70;;;0.70;;
13419;SDS011;6781;58.440;15.470;2023-09-18T08:43:45;0.63;;;0.50;;
13419;SDS011;6781;58.440;15.470;2023-09-18T08:46:16;3.60;;;0.90;;
13419;SDS011;6781;58.440;15.470;2023-09-18T08:48:43;3.25;;;0.70;;
13419;SDS011;6781;58.440;15.470;2023-09-18T08:51:11;2.28;;;0.82;;
13419;SDS011;6781;58.440;15.470;2023-09-18T08:53:43;1.83;;;0.70;;
13419;SDS011;6781;58.440;15.470;2023-09-18T08:56:39;0.90;;;0.52;;
13419;SDS011;6781;58.440;15.470;2023-09-18T08:59:06;2.20;;;0.80;;
13419;SDS011;6781;58.440;15.470;2023-09-18T09:01:33;1.20;;;0.55;;
13419;SDS011;6781;58.440;15.470;2023-09-18T09:04:00;2.65;;;0.90;;
13419;SDS011;6781;58.440;15.470;2023-09-18T09:06:27;1.60;;;0.80;;
13419;SDS011;6781;58.440;15.470;2023-09-18T09:08:55;2.65;;;1.10;;
13419;SDS011;6781;58.440;15.470;2023-09-18T09:11:22;1.77;;;0.80;;
13419;SDS011;6781;58.440;15.470;2023-09-18T09:13:50;1.00;;;0.75;;
13419;SDS011;6781;58.440;15.470;2023-09-18T09:16:38;3.35;;;0.70;;
13419;SDS011;6781;58.440;15.470;2023-09-18T09:19:06;3.38;;;0.80;;
13419;SDS011;6781;58.440;15.470;2023-09-18T09:21:39;3.83;;;0.90;;
13419;SDS011;6781;58.440;15.470;2023-09-18T09:24:10;2.13;;;0.70;;
13419;SDS011;6781;58.440;15.470;2023-09-18T09:26:39;1.98;;;1.88;;
13419;SDS011;6781;58.440;15.470;2023-09-18T09:29:17;1.98;;;1.17;;
13419;SDS011;6781;58.440;15.470;2023-09-18T09:31:45;1.33;;;0.70;;
13419;SDS011;6781;58.440;15.470;2023-09-18T09:34:12;1.92;;;0.85;;
13419;SDS011;6781;58.440;15.470;2023-09-18T09:36:52;2.00;;;1.08;;
13419;SDS011;6781;58.440;15.470;2023-09-18T09:39:21;2.28;;;1.00;;
13419;SDS011;6781;58.440;15.470;2023-09-18T09:41:50;2.28;;;1.00;;
13419;SDS011;6781;58.440;15.470;2023-09-18T09:44:18;2.45;;;1.00;;
13419;SDS011;6781;58.440;15.470;2023-09-18T09:46:49;4.30;;;0.95;;
13419;SDS011;6781;58.440;15.470;2023-09-18T09:49:17;2.97;;;1.23;;
13419;SDS011;6781;58.440;15.470;2023-09-18T09:51:45;2.78;;;0.93;;
13419;SDS011;6781;58.440;15.470;2023-09-18T09:54:12;1.70;;;1.05;;
13419;SDS011;6781;58.440;15.470;2023-09-18T09:56:44;3.45;;;0.90;;
13419;SDS011;6781;58.440;15.470;2023-09-18T09:59:13;4.95;;;1.13;;
13419;SDS011;6781;58.440;15.470;2023-09-18T10:01:42;1.67;;;0.80;;
13419;SDS011;6781;58.440;15.470;2023-09-18T10:04:14;2.70;;;1.20;;
13419;SDS011;6781;58.440;15.470;2023-09-18T10:06:43;3.80;;;1.10;;
13419;SDS011;6781;58.440;15.470;2023-09-18T10:09:12;2.17;;;1.02;;
13419;SDS011;6781;58.440;15.470;2023-09-18T10:11:41;1.75;;;1.25;;
13419;SDS011;6781;58.440;15.470;2023-09-18T10:14:14;3.17;;;1.25;;
13419;SDS011;6781;58.440;15.470;2023-09-18T10:16:45;1.63;;;0.90;;
13419;SDS011;6781;58.440;15.470;2023-09-18T10:19:20;3.17;;;1.27;;
13419;SDS011;6781;58.440;15.470;2023-09-18T10:21:56;2.72;;;1.10;;
13419;SDS011;6781;58.440;15.470;2023-09-18T10:24:36;1.83;;;1.05;;
13419;SDS011;6781;58.440;15.470;2023-09-18T10:27:04;1.95;;;0.90;;
13419;SDS011;6781;58.440;15.470;2023-09-18T10:29:36;1.73;;;1.13;;
13419;SDS011;6781;58.440;15.470;2023-09-18T10:32:04;1.27;;;1.02;;
13419;SDS011;6781;58.440;15.470;2023-09-18T10:34:33;1.75;;;1.08;;
13419;SDS011;6781;58.440;15.470;2023-09-18T10:37:01;2.50;;;1.30;;
13419;SDS011;6781;58.440;15.470;2023-09-18T10:39:31;1.98;;;1.00;;
13419;SDS011;6781;58.440;15.470;2023-09-18T10:42:02;2.03;;;1.10;;
13419;SDS011;6781;58.440;15.470;2023-09-18T10:44:31;1.67;;;1.10;;
13419;SDS011;6781;58.440;15.470;2023-09-18T10:47:00;1.20;;;1.10;;
13419;SDS011;6781;58.440;15.470;2023-09-18T10:49:30;1.90;;;1.00;;
13419;SDS011;6781;58.440;15.470;2023-09-18T10:51:58;4.60;;;1.13;;
13419;SDS011;6781;58.440;15.470;2023-09-18T10:54:26;2.22;;;1.30;;
13419;SDS011;6781;58.440;15.470;2023-09-18T10:56:54;2.60;;;1.35;;
13419;SDS011;6781;58.440;15.470;2023-09-18T10:59:22;3.17;;;1.25;;
13419;SDS011;6781;58.440;15.470;2023-09-18T11:01:50;2.17;;;1.10;;
13419;SDS011;6781;58.440;15.470;2023-09-18T11:04:20;1.23;;;1.10;;
13419;SDS011;6781;58.440;15.470;2023-09-18T11:09:31;1.70;;;1.35;;
13419;SDS011;6781;58.440;15.470;2023-09-18T11:12:06;1.88;;;1.35;;
13419;SDS011;6781;58.440;15.470;2023-09-18T11:14:46;1.98;;;1.30;;
13419;SDS011;6781;58.440;15.470;2023-09-18T11:17:28;2.58;;;1.25;;
13419;SDS011;6781;58.440;15.470;2023-09-18T11:20:05;1.88;;;1.38;;
13419;SDS011;6781;58.440;15.470;2023-09-18T11:22:37;1.63;;;1.23;;
13419;SDS011;6781;58.440;15.470;2023-09-18T11:28:01;2.92;;;1.65;;
13419;SDS011;6781;58.440;15.470;2023-09-18T11:30:28;2.67;;;1.30;;
13419;SDS011;6781;58.440;15.470;2023-09-18T11:32:56;3.58;;;1.58;;
13419;SDS011;6781;58.440;15.470;2023-09-18T11:35:24;2.75;;;1.33;;
13419;SDS011;6781;58.440;15.470;2023-09-18T11:38:05;2.17;;;1.40;;
13419;SDS011;6781;58.440;15.470;2023-09-18T11:40:34;1.45;;;1.10;;
13419;SDS011;6781;58.440;15.470;2023-09-18T11:43:25;2.67;;;1.50;;
13419;SDS011;6781;58.440;15.470;2023-09-18T11:45:55;3.13;;;1.83;;
13419;SDS011;6781;58.440;15.470;2023-09-18T11:48:23;3.67;;;1.50;;
13419;SDS011;6781;58.440;15.470;2023-09-18T11:50:55;1.50;;;1.17;;
13419;SDS011;6781;58.440;15.470;2023-09-18T11:53:23;2.63;;;1.48;;
13419;SDS011;6781;58.440;15.470;2023-09-18T11:55:51;1.92;;;1.50;;
13419;SDS011;6781;58.440;15.470;2023-09-18T11:58:18;3.45;;;1.50;;
13419;SDS011;6781;58.440;15.470;2023-09-18T12:00:48;1.85;;;1.58;;
13419;SDS011;6781;58.440;15.470;2023-09-18T12:03:17;2.55;;;1.40;;
13419;SDS011;6781;58.440;15.470;2023-09-18T12:05:58;3.65;;;1.35;;
13419;SDS011;6781;58.440;15.470;2023-09-18T12:08:28;3.10;;;1.70;;
13419;SDS011;6781;58.440;15.470;2023-09-18T12:10:56;3.17;;;1.77;;
13419;SDS011;6781;58.440;15.470;2023-09-18T12:13:24;3.45;;;1.80;;
13419;SDS011;6781;58.440;15.470;2023-09-18T12:15:55;1.88;;;1.42;;
13419;SDS011;6781;58.440;15.470;2023-09-18T12:18:24;3.65;;;1.50;;
13419;SDS011;6781;58.440;15.470;2023-09-18T12:20:55;1.77;;;1.40;;
13419;SDS011;6781;58.440;15.470;2023-09-18T12:23:25;1.40;;;1.30;;
13419;SDS011;6781;58.440;15.470;2023-09-18T12:25:57;1.90;;;1.40;;
13419;SDS011;6781;58.440;15.470;2023-09-18T12:28:26;2.45;;;1.50;;
13419;SDS011;6781;58.440;15.470;2023-09-18T12:30:54;2.47;;;1.80;;
13419;SDS011;6781;58.440;15.470;2023-09-18T12:33:22;3.35;;;1.65;;
13419;SDS011;6781;58.440;15.470;2023-09-18T12:35:49;2.17;;;1.45;;
13419;SDS011;6781;58.440;15.470;2023-09-18T12:38:17;1.90;;;1.40;;
13419;SDS011;6781;58.440;15.470;2023-09-18T12:40:51;4.15;;;1.40;;
13419;SDS011;6781;58.440;15.470;2023-09-18T12:43:19;1.75;;;1.27;;
13419;SDS011;6781;58.440;15.470;2023-09-18T12:45:49;2.03;;;1.80;;
13419;SDS011;6781;58.440;15.470;2023-09-18T12:48:17;3.28;;;1.60;;
13419;SDS011;6781;58.440;15.470;2023-09-18T12:50:44;1.95;;;1.25;;
13419;SDS011;6781;58.440;15.470;2023-09-18T12:53:12;3.47;;;1.50;;
13419;SDS011;6781;58.440;15.470;2023-09-18T12:55:40;4.43;;;1.50;;
13419;SDS011;6781;58.440;15.470;2023-09-18T12:58:11;2.22;;;1.65;;
13419;SDS011;6781;58.440;15.470;2023-09-18T13:00:44;2.33;;;1.42;;
13419;SDS011;6781;58.440;15.470;2023-09-18T13:03:14;2.53;;;1.60;;
13419;SDS011;6781;58.440;15.470;2023-09-18T13:05:42;3.88;;;1.80;;
13419;SDS011;6781;58.440;15.470;2023-09-18T13:08:09;2.95;;;1.98;;
13419;SDS011;6781;58.440;15.470;2023-09-18T13:10:41;3.47;;;2.10;;
13419;SDS011;6781;58.440;15.470;2023-09-18T13:13:16;4.93;;;2.10;;
13419;SDS011;6781;58.440;15.470;2023-09-18T13:15:44;6.63;;;1.90;;
13419;SDS011;6781;58.440;15.470;2023-09-18T13:18:13;2.20;;;2.00;;
13419;SDS011;6781;58.440;15.470;2023-09-18T13:20:40;2.33;;;1.73;;
13419;SDS011;6781;58.440;15.470;2023-09-18T13:23:08;2.67;;;1.95;;
13419;SDS011;6781;58.440;15.470;2023-09-18T13:25:36;4.38;;;2.25;;
13419;SDS011;6781;58.440;15.470;2023-09-18T13:28:09;3.78;;;2.08;;
13419;SDS011;6781;58.440;15.470;2023-09-18T13:30:39;2.97;;;2.13;;
13419;SDS011;6781;58.440;15.470;2023-09-18T13:33:07;4.43;;;1.75;;
13419;SDS011;6781;58.440;15.470;2023-09-18T13:35:36;2.38;;;1.85;;
13419;SDS011;6781;58.440;15.470;2023-09-18T13:38:04;3.22;;;2.17;;
13419;SDS011;6781;58.440;15.470;2023-09-18T13:40:33;4.18;;;2.25;;
13419;SDS011;6781;58.440;15.470;2023-09-18T13:43:01;5.93;;;2.60;;
13419;SDS011;6781;58.440;15.470;2023-09-18T13:45:29;4.25;;;2.05;;
13419;SDS011;6781;58.440;15.470;2023-09-18T13:47:58;2.58;;;1.95;;
13419;SDS011;6781;58.440;15.470;2023-09-18T13:50:42;4.88;;;2.05;;
13419;SDS011;6781;58.440;15.470;2023-09-18T13:53:09;3.38;;;2.05;;
13419;SDS011;6781;58.440;15.470;2023-09-18T13:55:36;4.10;;;2.13;;
13419;SDS011;6781;58.440;15.470;2023-09-18T13:58:03;3.20;;;1.73;;
13419;SDS011;6781;58.440;15.470;2023-09-18T14:00:32;4.72;;;2.13;;
13419;SDS011;6781;58.440;15.470;2023-09-18T14:03:00;4.20;;;1.92;;
13419;SDS011;6781;58.440;15.470;2023-09-18T14:05:28;4.55;;;1.98;;
13419;SDS011;6781;58.440;15.470;2023-09-18T14:07:56;3.33;;;1.88;;
13419;SDS011;6781;58.440;15.470;2023-09-18T14:10:25;3.10;;;1.65;;
13419;SDS011;6781;58.440;15.470;2023-09-18T14:12:53;2.83;;;1.73;;
13419;SDS011;6781;58.440;15.470;2023-09-18T14:15:26;2.65;;;1.83;;
13419;SDS011;6781;58.440;15.470;2023-09-18T14:18:31;4.43;;;1.90;;
13419;SDS011;6781;58.440;15.470;2023-09-18T14:21:19;4.95;;;1.60;;
13419;SDS011;6781;58.440;15.470;2023-09-18T14:24:03;5.22;;;1.70;;
13419;SDS011;6781;58.440;15.470;2023-09-18T14:26:30;3.20;;;1.75;;
13419;SDS011;6781;58.440;15.470;2023-09-18T14:28:59;2.47;;;1.67;;
13419;SDS011;6781;58.440;15.470;2023-09-18T14:31:26;2.40;;;1.45;;
13419;SDS011;6781;58.440;15.470;2023-09-18T14:33:55;3.20;;;1.60;;
13419;SDS011;6781;58.440;15.470;2023-09-18T14:36:23;2.78;;;1.70;;
13419;SDS011;6781;58.440;15.470;2023-09-18T14:38:50;3.03;;;1.40;;
13419;SDS011;6781;58.440;15.470;2023-09-18T14:41:17;2.17;;;1.40;;
13419;SDS011;6781;58.440;15.470;2023-09-18T14:43:46;2.90;;;1.50;;
13419;SDS011;6781;58.440;15.470;2023-09-18T14:46:13;2.38;;;1.63;;
13419;SDS011;6781;58.440;15.470;2023-09-18T14:48:40;4.03;;;1.60;;
13419;SDS011;6781;58.440;15.470;2023-09-18T14:51:08;3.90;;;1.70;;
13419;SDS011;6781;58.440;15.470;2023-09-18T14:53:37;2.75;;;1.35;;
13419;SDS011;6781;58.440;15.470;2023-09-18T14:56:03;2.63;;;1.13;;
13419;SDS011;6781;58.440;15.470;2023-09-18T14:58:30;4.68;;;1.45;;
13419;SDS011;6781;58.440;15.470;2023-09-18T15:00:57;2.70;;;1.60;;
13419;SDS011;6781;58.440;15.470;2023-09-18T15:03:25;2.58;;;1.20;;
13419;SDS011;6781;58.440;15.470;2023-09-18T15:05:52;2.28;;;1.48;;